createdAt,value
2019-05-17T00:01:01.505Z,15.08
2019-05-17T00:03:32.137Z,15.60
2019-05-17T00:06:03.151Z,15.13
2019-05-17T00:08:37.869Z,15.63
2019-05-17T00:11:07.944Z,15.05
2019-05-17T00:13:38.951Z,15.48
2019-05-17T00:16:09.998Z,15.72
2019-05-17T00:18:40.940Z,15.78
2019-05-17T00:21:11.774Z,16.32
2019-05-17T00:23:42.610Z,17.17
2019-05-17T00:26:13.513Z,17.27
2019-05-17T00:28:46.778Z,17.67
2019-05-17T00:31:17.189Z,20.10
2019-05-17T00:33:47.967Z,21.20
2019-05-17T00:36:18.832Z,21.20
2019-05-17T00:38:51.549Z,23.07
2019-05-17T00:41:22.545Z,20.85
2019-05-17T00:43:53.994Z,20.17
2019-05-17T00:46:26.639Z,21.42
2019-05-17T00:48:57.513Z,20.05
2019-05-17T00:51:28.549Z,20.10
2019-05-17T00:53:59.406Z,18.45
2019-05-17T00:56:30.428Z,17.17
2019-05-17T00:59:01.372Z,17.30
2019-05-17T01:01:32.201Z,17.37
2019-05-17T01:04:03.034Z,17.82
2019-05-17T01:06:34.073Z,17.92
2019-05-17T01:09:07.810Z,16.80
2019-05-17T01:11:39.518Z,16.73
2019-05-17T01:14:11.009Z,16.82
2019-05-17T01:16:43.452Z,17.17
2019-05-17T01:19:16.394Z,18.30
2019-05-17T01:21:47.538Z,18.50
2019-05-17T01:24:18.463Z,20.50
2019-05-17T01:26:52.852Z,17.37
2019-05-17T01:29:26.845Z,17.52
2019-05-17T01:34:28.002Z,17.17
2019-05-17T01:36:58.811Z,17.62
2019-05-17T01:39:30.385Z,18.90
2019-05-17T01:42:01.221Z,18.48
2019-05-17T01:44:32.164Z,18.67
2019-05-17T01:47:03.611Z,18.32
2019-05-17T01:49:36.343Z,17.73
2019-05-17T01:52:07.612Z,18.32
2019-05-17T01:54:38.880Z,18.07
2019-05-17T01:57:10.125Z,17.52
2019-05-17T01:59:40.754Z,16.52
2019-05-17T02:02:16.411Z,18.42
2019-05-17T02:04:47.135Z,18.15
2019-05-17T02:07:19.511Z,17.77
2019-05-17T02:09:50.132Z,17.48
2019-05-17T02:12:20.566Z,17.85
2019-05-17T02:14:51.599Z,18.37
2019-05-17T02:17:22.411Z,17.73
2019-05-17T02:19:53.270Z,17.60
2019-05-17T02:22:24.242Z,17.98
2019-05-17T02:24:56.742Z,19.55
2019-05-17T02:27:32.139Z,18.50
2019-05-17T02:30:02.552Z,18.25
2019-05-17T02:32:34.099Z,18.17
2019-05-17T02:35:05.971Z,19.40
2019-05-17T02:37:36.692Z,18.07
2019-05-17T02:40:09.032Z,18.80
2019-05-17T02:42:42.695Z,18.32
2019-05-17T02:45:14.010Z,17.85
2019-05-17T02:47:44.596Z,18.23
2019-05-17T02:50:15.608Z,19.62
2019-05-17T02:52:47.128Z,18.23
2019-05-17T02:55:18.946Z,18.70
2019-05-17T02:57:49.515Z,18.40
2019-05-17T03:00:23.798Z,18.02
2019-05-17T03:02:53.774Z,18.90
2019-05-17T03:05:24.681Z,17.75
2019-05-17T03:07:55.540Z,18.37
2019-05-17T03:10:28.982Z,18.30
2019-05-17T03:12:58.747Z,17.92
2019-05-17T03:15:32.185Z,18.10
2019-05-17T03:18:03.974Z,18.40
2019-05-17T03:20:35.086Z,17.75
2019-05-17T03:23:06.200Z,19.23
2019-05-17T03:25:37.001Z,17.70
2019-05-17T03:28:13.194Z,18.07
2019-05-17T03:30:46.705Z,17.55
2019-05-17T03:33:16.889Z,17.82
2019-05-17T03:35:48.629Z,18.67
2019-05-17T03:38:22.686Z,18.50
2019-05-17T03:41:18.682Z,16.82
2019-05-17T03:43:24.319Z,17.57
2019-05-17T03:45:55.574Z,17.73
2019-05-17T03:48:26.590Z,17.52
2019-05-17T03:50:57.432Z,19.98
2019-05-17T03:53:29.489Z,17.40
2019-05-17T03:56:03.013Z,19.40
2019-05-17T03:58:33.654Z,17.05
2019-05-17T04:01:04.759Z,17.55
2019-05-17T04:03:35.835Z,18.27
2019-05-17T04:06:07.055Z,18.50
2019-05-17T04:08:37.677Z,17.57
2019-05-17T04:11:22.505Z,17.62
2019-05-17T04:13:43.026Z,20.05
2019-05-17T04:16:14.385Z,17.80
2019-05-17T04:18:45.315Z,17.07
2019-05-17T04:21:16.494Z,18.32
2019-05-17T04:23:47.291Z,29.05
2019-05-17T04:26:18.218Z,20.50
2019-05-17T04:28:52.986Z,16.97
2019-05-17T04:31:22.925Z,17.20
2019-05-17T04:33:53.878Z,19.30
2019-05-17T04:36:26.385Z,16.97
2019-05-17T04:38:57.188Z,18.17
2019-05-17T04:41:41.303Z,17.37
2019-05-17T04:44:02.761Z,17.65
2019-05-17T04:49:04.252Z,18.10
2019-05-17T04:51:35.202Z,17.90
2019-05-17T04:54:06.132Z,17.37
2019-05-17T04:56:37.568Z,20.90
2019-05-17T04:59:08.171Z,17.65
2019-05-17T05:01:43.221Z,16.70
2019-05-17T05:04:15.412Z,17.65
2019-05-17T05:06:45.110Z,16.70
2019-05-17T05:09:15.739Z,17.42
2019-05-17T05:11:57.004Z,15.75
2019-05-17T05:14:19.461Z,16.05
2019-05-17T05:16:52.856Z,17.15
2019-05-17T05:19:24.195Z,19.73
2019-05-17T05:21:57.221Z,17.45
2019-05-17T05:24:31.482Z,16.67
2019-05-17T05:29:33.215Z,16.27
2019-05-17T05:32:06.004Z,16.37
2019-05-17T05:34:36.978Z,17.07
2019-05-17T05:37:08.023Z,15.40
2019-05-17T05:39:41.366Z,17.27
2019-05-17T05:42:14.018Z,19.17
2019-05-17T05:44:44.938Z,15.32
2019-05-17T05:47:15.665Z,16.77
2019-05-17T05:49:46.504Z,16.85
2019-05-17T05:52:17.694Z,17.87
2019-05-17T05:54:48.480Z,17.37
2019-05-17T05:57:21.806Z,17.90
2019-05-17T05:59:52.300Z,17.43
2019-05-17T06:02:23.484Z,18.00
2019-05-17T06:04:54.588Z,18.82
2019-05-17T06:07:27.778Z,17.05
2019-05-17T06:09:58.715Z,20.75
2019-05-17T06:12:32.091Z,17.40
2019-05-17T06:15:02.770Z,19.25
2019-05-17T06:17:33.883Z,17.00
2019-05-17T06:20:05.815Z,16.55
2019-05-17T06:22:36.473Z,16.20
2019-05-17T06:25:07.518Z,16.35
2019-05-17T06:27:38.554Z,15.93
2019-05-17T06:30:14.965Z,16.70
2019-05-17T06:32:45.953Z,16.42
2019-05-17T06:35:16.581Z,13.90
2019-05-17T06:37:47.722Z,14.45
2019-05-17T06:40:18.810Z,15.00
2019-05-17T06:42:49.294Z,15.40
2019-05-17T06:45:23.202Z,14.78
2019-05-17T06:47:53.826Z,15.53
2019-05-17T06:50:24.669Z,15.88
2019-05-17T06:52:55.807Z,15.50
2019-05-17T06:55:26.846Z,16.25
2019-05-17T06:57:58.031Z,15.55
2019-05-17T07:00:29.879Z,16.12
2019-05-17T07:03:00.907Z,15.78
2019-05-17T07:05:33.467Z,15.80
2019-05-17T07:08:04.533Z,18.83
2019-05-17T07:10:39.610Z,15.48
2019-05-17T07:13:10.662Z,16.90
2019-05-17T07:15:47.834Z,16.00
2019-05-17T07:18:16.754Z,15.45
2019-05-17T07:20:49.991Z,15.58
2019-05-17T07:23:21.599Z,16.17
2019-05-17T07:25:53.966Z,15.53
2019-05-17T07:28:25.647Z,14.87
2019-05-17T07:30:59.459Z,15.13
2019-05-17T07:33:30.562Z,15.10
2019-05-17T07:36:02.192Z,15.10
2019-05-17T07:38:35.063Z,14.68
2019-05-17T07:41:06.150Z,14.65
2019-05-17T07:43:40.301Z,16.00
2019-05-17T07:46:10.745Z,14.58
2019-05-17T07:48:42.134Z,13.15
2019-05-17T07:51:13.798Z,14.47
2019-05-17T07:53:44.727Z,14.03
2019-05-17T07:56:15.567Z,14.93
2019-05-17T07:58:49.360Z,19.32
2019-05-17T08:03:53.613Z,14.95
2019-05-17T08:06:24.476Z,13.48
2019-05-17T08:08:55.265Z,13.58
2019-05-17T08:11:26.438Z,13.58
2019-05-17T08:13:59.638Z,14.25
2019-05-17T08:16:30.354Z,13.77
2019-05-17T08:19:02.622Z,15.38
2019-05-17T08:21:34.493Z,12.67
2019-05-17T08:24:05.704Z,13.60
2019-05-17T08:26:36.658Z,13.03
2019-05-17T08:29:09.849Z,12.60
2019-05-17T08:31:40.522Z,13.20
2019-05-17T08:34:13.757Z,13.25
2019-05-17T08:36:44.586Z,12.70
2019-05-17T08:39:15.530Z,13.05
2019-05-17T08:41:49.699Z,12.68
2019-05-17T08:44:19.819Z,12.10
2019-05-17T08:46:50.903Z,12.65
2019-05-17T08:49:22.252Z,14.03
2019-05-17T08:51:53.306Z,13.75
2019-05-17T08:54:24.242Z,12.47
2019-05-17T08:56:55.081Z,11.83
2019-05-17T08:59:26.008Z,13.05
2019-05-17T09:01:59.966Z,11.35
2019-05-17T09:04:30.128Z,11.85
2019-05-17T09:07:03.210Z,13.88
2019-05-17T09:09:33.536Z,14.98
2019-05-17T09:12:05.977Z,11.57
2019-05-17T09:14:40.149Z,12.45
2019-05-17T09:17:10.776Z,14.90
2019-05-17T09:19:41.225Z,16.97
2019-05-17T09:22:12.736Z,14.43
2019-05-17T09:24:43.445Z,11.60
2019-05-17T09:27:14.396Z,11.48
2019-05-17T09:29:46.247Z,10.82
2019-05-17T09:32:20.137Z,12.80
2019-05-17T09:34:51.785Z,12.90
2019-05-17T09:37:23.282Z,12.00
2019-05-17T09:39:59.683Z,10.65
2019-05-17T09:42:30.736Z,10.33
2019-05-17T09:45:01.813Z,10.55
2019-05-17T09:47:35.413Z,11.08
2019-05-17T09:50:09.933Z,10.53
2019-05-17T09:52:40.985Z,10.98
2019-05-17T09:55:15.569Z,10.25
2019-05-17T09:57:46.575Z,10.35
2019-05-17T10:00:20.889Z,10.70
2019-05-17T10:05:21.808Z,10.35
2019-05-17T10:07:54.686Z,11.10
2019-05-17T10:10:26.828Z,10.95
2019-05-17T10:13:00.262Z,11.45
2019-05-17T10:15:30.897Z,10.18
2019-05-17T10:18:02.131Z,9.90
2019-05-17T10:20:32.927Z,8.25
2019-05-17T10:23:04.018Z,9.03
2019-05-17T10:25:35.904Z,8.78
2019-05-17T10:28:09.800Z,9.03
2019-05-17T10:30:40.508Z,10.30
2019-05-17T10:33:11.456Z,9.50
2019-05-17T10:35:42.990Z,9.33
2019-05-17T10:38:13.925Z,9.93
2019-05-17T10:40:44.832Z,9.08
2019-05-17T10:43:17.438Z,18.02
2019-05-17T10:45:48.673Z,9.13
2019-05-17T10:48:23.310Z,8.23
2019-05-17T10:50:54.246Z,8.83
2019-05-17T10:53:29.576Z,8.88
2019-05-17T10:56:00.823Z,8.90
2019-05-17T10:58:34.126Z,9.08
2019-05-17T11:01:05.267Z,8.35
2019-05-17T11:03:39.583Z,8.68
2019-05-17T11:06:10.908Z,9.48
2019-05-17T11:08:42.481Z,8.45
2019-05-17T11:11:13.930Z,9.10
2019-05-17T11:13:44.866Z,7.60
2019-05-17T11:16:15.498Z,8.30
2019-05-17T11:18:46.437Z,8.28
2019-05-17T11:21:18.897Z,26.15
2019-05-17T11:23:49.572Z,10.23
2019-05-17T11:26:22.117Z,7.70
2019-05-17T11:28:54.795Z,7.30
2019-05-17T11:31:25.210Z,12.03
2019-05-17T11:33:56.156Z,10.15
2019-05-17T11:36:28.427Z,7.78
2019-05-17T11:38:59.066Z,7.53
2019-05-17T11:41:30.070Z,9.78
2019-05-17T11:44:00.833Z,11.05
2019-05-17T11:46:36.061Z,9.15
2019-05-17T11:49:04.090Z,7.70
2019-05-17T11:51:38.043Z,8.45
2019-05-17T11:54:08.935Z,7.62
2019-05-17T11:56:40.325Z,7.30
2019-05-17T11:59:11.264Z,7.33
2019-05-17T12:01:42.250Z,6.80
2019-05-17T12:04:13.249Z,6.85
2019-05-17T12:06:44.077Z,6.65
2019-05-17T12:09:17.883Z,6.12
2019-05-17T12:11:48.937Z,7.40
2019-05-17T12:14:20.784Z,6.63
2019-05-17T12:16:51.516Z,6.90
2019-05-17T12:19:22.792Z,8.10
2019-05-17T12:21:53.593Z,6.47
2019-05-17T12:24:24.647Z,5.70
2019-05-17T12:26:55.470Z,8.58
2019-05-17T12:29:26.314Z,9.18
2019-05-17T12:31:57.258Z,6.40
2019-05-17T12:34:28.100Z,9.53
2019-05-17T12:36:59.835Z,8.43
2019-05-17T12:39:30.804Z,7.60
2019-05-17T12:42:02.031Z,7.15
2019-05-17T12:44:32.850Z,7.53
2019-05-17T12:47:04.024Z,7.30
2019-05-17T12:49:34.831Z,7.28
2019-05-17T12:52:06.074Z,7.25
2019-05-17T12:54:37.121Z,7.12
2019-05-17T12:57:10.304Z,6.37
2019-05-17T12:59:41.032Z,7.00
2019-05-17T13:02:13.471Z,6.90
2019-05-17T13:04:44.338Z,6.70
2019-05-17T13:07:16.192Z,8.60
2019-05-17T13:09:47.411Z,6.72
2019-05-17T13:12:19.929Z,7.28
2019-05-17T13:14:50.861Z,8.80
2019-05-17T13:17:22.205Z,6.97
2019-05-17T13:19:53.245Z,8.28
2019-05-17T13:22:24.194Z,8.33
2019-05-17T13:24:55.028Z,8.48
2019-05-17T13:27:26.098Z,7.00
2019-05-17T13:29:57.476Z,7.60
2019-05-17T13:32:28.549Z,7.08
2019-05-17T13:34:59.485Z,8.38
2019-05-17T13:37:30.261Z,7.10
2019-05-17T13:40:01.329Z,6.67
2019-05-17T13:42:33.456Z,7.70
2019-05-17T13:45:06.099Z,7.40
2019-05-17T13:47:36.509Z,8.23
2019-05-17T13:50:08.397Z,8.43
2019-05-17T13:52:39.015Z,7.67
2019-05-17T13:55:10.317Z,7.95
2019-05-17T13:57:40.795Z,9.30
2019-05-17T14:00:12.549Z,9.03
2019-05-17T14:02:43.897Z,8.48
2019-05-17T14:05:14.725Z,9.78
2019-05-17T14:07:45.628Z,8.38
2019-05-17T14:10:26.933Z,18.52
2019-05-17T14:12:50.010Z,7.80
2019-05-17T14:15:21.035Z,7.78
2019-05-17T14:17:51.832Z,8.33
2019-05-17T14:20:22.852Z,7.17
2019-05-17T14:22:53.978Z,32.20
2019-05-17T14:25:24.880Z,7.53
2019-05-17T14:27:55.693Z,7.40
2019-05-17T14:30:26.659Z,8.25
2019-05-17T14:32:57.355Z,7.87
2019-05-17T14:35:28.247Z,9.38
2019-05-17T14:37:59.133Z,10.93
2019-05-17T14:41:03.989Z,7.60
2019-05-17T14:43:02.345Z,7.70
2019-05-17T14:45:34.834Z,8.50
2019-05-17T14:48:05.574Z,6.72
2019-05-17T14:50:38.369Z,7.20
2019-05-17T14:53:09.030Z,7.78
2019-05-17T14:55:40.128Z,6.35
2019-05-17T14:58:11.204Z,7.28
2019-05-17T15:00:42.006Z,7.75
2019-05-17T15:03:13.047Z,6.80
2019-05-17T15:05:43.995Z,7.55
2019-05-17T15:08:14.943Z,7.78
2019-05-17T15:10:45.714Z,7.45
2019-05-17T15:13:16.710Z,8.58
2019-05-17T15:15:47.936Z,7.22
2019-05-17T15:18:19.103Z,6.92
2019-05-17T15:20:50.067Z,11.22
2019-05-17T15:23:22.491Z,7.78
2019-05-17T15:25:53.362Z,8.05
2019-05-17T15:28:24.738Z,7.83
2019-05-17T15:30:56.746Z,8.85
2019-05-17T15:33:27.731Z,9.68
2019-05-17T15:35:58.716Z,9.80
2019-05-17T15:38:29.637Z,9.20
2019-05-17T15:41:00.433Z,11.63
2019-05-17T15:43:31.237Z,7.97
2019-05-17T15:46:02.565Z,10.70
2019-05-17T15:48:33.505Z,11.05
2019-05-17T15:51:04.658Z,8.90
2019-05-17T15:53:35.378Z,9.15
2019-05-17T15:56:06.423Z,9.13
2019-05-17T15:58:37.132Z,9.50
2019-05-17T16:01:08.088Z,9.15
2019-05-17T16:03:39.431Z,9.83
2019-05-17T16:06:10.204Z,12.75
2019-05-17T16:08:41.105Z,10.35
2019-05-17T16:11:12.557Z,9.95
2019-05-17T16:13:43.080Z,9.15
2019-05-17T16:16:14.852Z,9.80
2019-05-17T16:18:46.286Z,9.78
2019-05-17T16:21:16.779Z,9.40
2019-05-17T16:23:47.975Z,10.08
2019-05-17T16:26:18.896Z,9.90
2019-05-17T16:28:49.593Z,11.00
2019-05-17T16:31:20.463Z,10.28
2019-05-17T16:33:51.607Z,10.15
2019-05-17T16:36:22.348Z,10.85
2019-05-17T16:38:53.067Z,10.23
2019-05-17T16:41:23.913Z,10.85
2019-05-17T16:43:55.168Z,10.05
2019-05-17T16:46:26.089Z,10.00
2019-05-17T16:48:56.927Z,10.48
2019-05-17T16:51:28.319Z,10.80
2019-05-17T16:53:59.207Z,10.68
2019-05-17T16:56:30.062Z,10.72
2019-05-17T16:59:01.083Z,10.63
2019-05-17T17:01:32.119Z,10.80
2019-05-17T17:04:02.550Z,10.55
2019-05-17T17:06:33.586Z,9.75
2019-05-17T17:09:05.963Z,11.88
2019-05-17T17:11:36.617Z,11.45
2019-05-17T17:14:07.587Z,11.63
2019-05-17T17:16:38.570Z,12.33
2019-05-17T17:19:09.402Z,16.27
2019-05-17T17:21:40.343Z,10.82
2019-05-17T17:24:11.384Z,11.48
2019-05-17T17:26:42.219Z,11.45
2019-05-17T17:29:13.151Z,12.35
2019-05-17T17:31:44.064Z,11.38
2019-05-17T17:34:14.963Z,11.80
2019-05-17T17:36:45.858Z,11.48
2019-05-17T17:39:16.799Z,12.55
2019-05-17T17:41:47.556Z,11.33
2019-05-17T17:44:18.229Z,10.30
2019-05-17T17:46:49.200Z,9.90
2019-05-17T17:49:20.786Z,9.85
2019-05-17T17:51:51.728Z,10.25
2019-05-17T17:54:22.626Z,10.70
2019-05-17T17:56:53.623Z,11.08
2019-05-17T17:59:24.447Z,10.82
2019-05-17T18:01:55.574Z,10.78
2019-05-17T18:04:26.585Z,11.50
2019-05-17T18:06:57.627Z,11.80
2019-05-17T18:09:28.762Z,12.13
2019-05-17T18:11:59.905Z,10.75
2019-05-17T18:14:30.538Z,11.03
2019-05-17T18:17:03.112Z,11.97
2019-05-17T18:19:33.956Z,11.10
2019-05-17T18:22:06.339Z,11.65
2019-05-17T18:24:37.358Z,10.48
2019-05-17T18:27:08.294Z,10.43
2019-05-17T18:29:39.027Z,11.43
2019-05-17T18:32:09.862Z,10.63
2019-05-17T18:34:40.803Z,11.68
2019-05-17T18:37:11.430Z,11.48
2019-05-17T18:39:43.128Z,11.25
2019-05-17T18:42:14.228Z,10.88
2019-05-17T18:44:45.062Z,12.35
2019-05-17T18:47:16.934Z,12.40
2019-05-17T18:49:47.654Z,11.93
2019-05-17T18:52:18.538Z,12.23
2019-05-17T18:54:49.555Z,10.68
2019-05-17T18:57:20.601Z,11.95
2019-05-17T18:59:51.505Z,12.40
2019-05-17T19:02:23.468Z,11.05
2019-05-17T19:04:54.407Z,12.03
2019-05-17T19:07:25.750Z,11.60
2019-05-17T19:09:57.096Z,11.33
2019-05-17T19:12:28.032Z,19.92
2019-05-17T19:15:00.749Z,12.60
2019-05-17T19:17:31.340Z,14.30
2019-05-17T19:20:04.228Z,13.62
2019-05-17T19:22:34.872Z,13.60
2019-05-17T19:25:08.452Z,16.25
2019-05-17T19:27:39.086Z,13.87
2019-05-17T19:30:12.990Z,13.43
2019-05-17T19:32:43.931Z,13.75
2019-05-17T19:35:16.804Z,14.00
2019-05-17T19:37:48.160Z,12.23
2019-05-17T19:40:21.007Z,12.20
2019-05-17T19:42:51.611Z,14.73
2019-05-17T19:45:22.507Z,12.20
2019-05-17T19:47:53.136Z,11.33
2019-05-17T19:50:24.176Z,11.15
2019-05-17T19:52:55.013Z,11.00
2019-05-17T19:55:25.779Z,10.18
2019-05-17T19:57:56.788Z,11.03
2019-05-17T20:00:27.781Z,11.40
2019-05-17T20:02:58.966Z,10.13
2019-05-17T20:05:29.802Z,10.03
2019-05-17T20:08:00.739Z,10.70
2019-05-17T20:10:31.369Z,10.05
2019-05-17T20:13:02.614Z,10.55
2019-05-17T20:15:34.994Z,10.43
2019-05-17T20:18:07.883Z,11.12
2019-05-17T20:20:38.751Z,11.57
2019-05-17T20:23:10.562Z,9.80
2019-05-17T20:25:41.402Z,10.18
2019-05-17T20:28:12.164Z,9.90
2019-05-17T20:30:43.127Z,9.58
2019-05-17T20:33:14.307Z,9.13
2019-05-17T20:35:46.638Z,9.48
2019-05-17T20:38:17.437Z,10.08
2019-05-17T20:40:48.475Z,9.68
2019-05-17T20:43:19.138Z,9.05
2019-05-17T20:45:50.427Z,8.85
2019-05-17T20:48:21.602Z,8.08
2019-05-17T20:50:52.714Z,8.73
2019-05-17T20:53:23.654Z,8.75
2019-05-17T20:55:54.523Z,11.28
2019-05-17T20:58:25.525Z,8.43
2019-05-17T21:00:56.387Z,8.93
2019-05-17T21:03:27.298Z,8.98
2019-05-17T21:05:57.926Z,8.33
2019-05-17T21:08:29.263Z,9.18
2019-05-17T21:10:59.811Z,8.98
2019-05-17T21:13:30.639Z,9.08
2019-05-17T21:16:01.721Z,8.75
2019-05-17T21:18:32.758Z,8.00
2019-05-17T21:21:03.792Z,8.45
2019-05-17T21:23:34.799Z,8.93
2019-05-17T21:26:05.310Z,8.75
2019-05-17T21:28:36.367Z,8.23
2019-05-17T21:31:09.247Z,7.83
2019-05-17T21:33:39.777Z,8.70
2019-05-17T21:36:10.832Z,8.73
2019-05-17T21:38:41.712Z,8.75
2019-05-17T21:41:14.636Z,9.43
2019-05-17T21:43:45.676Z,9.98
2019-05-17T21:46:17.534Z,9.55
2019-05-17T21:48:48.022Z,10.28
2019-05-17T21:51:19.002Z,9.55
2019-05-17T21:53:49.910Z,9.58
2019-05-17T21:56:20.876Z,8.78
2019-05-17T21:58:51.710Z,8.88
2019-05-17T22:01:25.927Z,9.35
2019-05-17T22:03:56.468Z,9.28
2019-05-17T22:06:27.423Z,8.93
2019-05-17T22:08:58.119Z,8.53
2019-05-17T22:11:30.193Z,8.98
2019-05-17T22:14:03.720Z,9.48
2019-05-17T22:16:34.693Z,10.03
2019-05-17T22:19:05.522Z,10.15
2019-05-17T22:21:36.598Z,10.23
2019-05-17T22:24:07.845Z,9.88
2019-05-17T22:26:38.884Z,10.30
2019-05-17T22:29:09.871Z,10.15
2019-05-17T22:31:40.965Z,12.00
2019-05-17T22:34:11.905Z,12.70
2019-05-17T22:36:43.185Z,13.40
2019-05-17T22:39:14.636Z,12.43
2019-05-17T22:41:45.656Z,11.35
2019-05-17T22:44:16.672Z,10.50
2019-05-17T22:46:48.015Z,11.00
2019-05-17T22:49:19.370Z,10.28
2019-05-17T22:51:50.306Z,10.93
2019-05-17T22:54:21.547Z,10.35
2019-05-17T22:56:52.489Z,11.00
2019-05-17T22:59:23.439Z,11.08
2019-05-17T23:01:54.462Z,11.80
2019-05-17T23:04:25.724Z,11.65
2019-05-17T23:06:56.639Z,12.20
2019-05-17T23:09:27.679Z,12.45
2019-05-17T23:11:58.619Z,11.80
2019-05-17T23:14:29.558Z,11.18
2019-05-17T23:17:00.493Z,11.15
2019-05-17T23:19:31.536Z,12.05
2019-05-17T23:22:02.164Z,10.95
2019-05-17T23:24:33.013Z,10.72
2019-05-17T23:27:04.551Z,11.20
2019-05-17T23:29:35.295Z,10.08
2019-05-17T23:32:06.020Z,10.53
2019-05-17T23:34:37.675Z,10.53
2019-05-17T23:37:08.605Z,10.03
2019-05-17T23:39:39.545Z,9.08
2019-05-17T23:42:10.584Z,7.87
2019-05-17T23:44:41.419Z,7.67
2019-05-17T23:47:12.460Z,7.72
2019-05-17T23:49:43.408Z,7.17
2019-05-17T23:52:14.439Z,8.80
2019-05-17T23:54:45.268Z,7.22
2019-05-17T23:57:16.206Z,7.17
2019-05-17T23:59:47.054Z,7.42
